createdAt,value
2022-09-10T00:00:01.074Z,934.04
2022-09-10T00:01:01.092Z,934.07
2022-09-10T00:02:01.180Z,934.09
2022-09-10T00:03:01.158Z,934.10
2022-09-10T00:04:01.137Z,934.10
2022-09-10T00:05:01.156Z,934.11
2022-09-10T00:06:01.169Z,934.04
2022-09-10T00:07:01.184Z,934.05
2022-09-10T00:08:01.220Z,934.03
2022-09-10T00:09:01.223Z,934.04
2022-09-10T00:10:01.316Z,934.03
2022-09-10T00:11:01.248Z,934.04
2022-09-10T00:12:01.267Z,934.05
2022-09-10T00:13:01.281Z,934.04
2022-09-10T00:14:01.303Z,934.03
2022-09-10T00:15:01.313Z,934.08
2022-09-10T00:16:01.406Z,934.03
2022-09-10T00:17:01.344Z,934.03
2022-09-10T00:18:01.359Z,934.05
2022-09-10T00:19:01.415Z,934.05
2022-09-10T00:20:01.392Z,934.06
2022-09-10T00:21:01.407Z,934.05
2022-09-10T00:22:01.424Z,934.11
2022-09-10T00:23:01.441Z,934.12
2022-09-10T00:24:01.483Z,934.15
2022-09-10T00:25:05.052Z,934.16
2022-09-10T00:26:01.488Z,934.10
2022-09-10T00:27:01.506Z,934.12
2022-09-10T00:28:01.525Z,934.14
2022-09-10T00:29:01.541Z,934.09
2022-09-10T00:30:01.553Z,934.06
2022-09-10T00:31:01.661Z,934.09
2022-09-10T00:32:01.584Z,934.11
2022-09-10T00:33:01.599Z,934.03
2022-09-10T00:34:01.618Z,934.06
2022-09-10T00:35:01.631Z,934.05
2022-09-10T00:36:01.647Z,934.07
2022-09-10T00:37:01.663Z,934.03
2022-09-10T00:38:01.679Z,934.04
2022-09-10T00:39:01.695Z,934.02
2022-09-10T00:40:01.813Z,934.02
2022-09-10T00:41:01.726Z,934.01
2022-09-10T00:42:01.742Z,934.01
2022-09-10T00:43:01.759Z,934.03
2022-09-10T00:44:01.775Z,934.02
2022-09-10T00:45:01.790Z,934.00
2022-09-10T00:46:01.853Z,933.98
2022-09-10T00:47:01.821Z,934.03
2022-09-10T00:48:01.838Z,933.95
2022-09-10T00:49:01.854Z,933.97
2022-09-10T00:50:01.873Z,933.96
2022-09-10T00:51:01.887Z,934.03
2022-09-10T00:52:01.902Z,934.02
2022-09-10T00:53:01.918Z,934.05
2022-09-10T00:54:01.931Z,934.06
2022-09-10T00:55:01.951Z,934.06
2022-09-10T00:56:01.984Z,934.08
2022-09-10T00:57:01.984Z,934.10
2022-09-10T00:58:01.994Z,934.15
2022-09-10T00:59:02.012Z,934.18
2022-09-10T01:00:02.027Z,934.18
2022-09-10T01:01:02.079Z,934.17
2022-09-10T01:02:02.103Z,934.18
2022-09-10T01:03:02.076Z,934.21
2022-09-10T01:04:02.091Z,934.19
2022-09-10T01:05:02.139Z,934.18
2022-09-10T01:06:02.123Z,934.18
2022-09-10T01:07:02.140Z,934.17
2022-09-10T01:08:02.156Z,934.16
2022-09-10T01:09:02.172Z,934.13
2022-09-10T01:10:02.186Z,934.14
2022-09-10T01:11:02.201Z,934.13
2022-09-10T01:12:04.283Z,934.11
2022-09-10T01:13:02.235Z,934.09
2022-09-10T01:14:02.250Z,934.09
2022-09-10T01:15:02.265Z,934.11
2022-09-10T01:16:02.310Z,934.11
2022-09-10T01:17:02.298Z,934.08
2022-09-10T01:18:02.318Z,934.09
2022-09-10T01:19:02.331Z,934.05
2022-09-10T01:20:02.348Z,934.03
2022-09-10T01:21:02.360Z,933.98
2022-09-10T01:22:02.382Z,933.99
2022-09-10T01:23:02.393Z,934.00
2022-09-10T01:24:02.409Z,933.95
2022-09-10T01:25:02.424Z,933.99
2022-09-10T01:26:02.440Z,933.97
2022-09-10T01:27:02.456Z,933.95
2022-09-10T01:28:02.492Z,933.92
2022-09-10T01:29:02.486Z,933.94
2022-09-10T01:30:03.109Z,933.95
2022-09-10T01:31:02.519Z,933.99
2022-09-10T01:32:02.535Z,933.97
2022-09-10T01:33:02.550Z,934.00
2022-09-10T01:34:02.567Z,933.97
2022-09-10T01:35:02.583Z,933.99
2022-09-10T01:36:02.598Z,933.98
2022-09-10T01:37:02.620Z,933.95
2022-09-10T01:38:02.632Z,933.97
2022-09-10T01:39:02.653Z,933.93
2022-09-10T01:40:02.729Z,934.01
2022-09-10T01:41:02.681Z,933.97
2022-09-10T01:42:02.694Z,933.94
2022-09-10T01:43:02.709Z,933.98
2022-09-10T01:44:02.746Z,933.94
2022-09-10T01:45:02.740Z,933.95
2022-09-10T01:46:02.791Z,933.95
2022-09-10T01:47:02.772Z,933.93
2022-09-10T01:48:02.788Z,934.02
2022-09-10T01:49:02.802Z,934.05
2022-09-10T01:50:02.820Z,934.02
2022-09-10T01:51:02.836Z,934.04
2022-09-10T01:52:02.852Z,934.03
2022-09-10T01:53:02.865Z,934.07
2022-09-10T01:54:02.882Z,934.04
2022-09-10T01:55:02.900Z,934.03
2022-09-10T01:56:02.915Z,934.02
2022-09-10T01:57:02.929Z,934.06
2022-09-10T01:58:02.947Z,933.99
2022-09-10T01:59:02.961Z,934.00
2022-09-10T02:00:03.004Z,934.02
2022-09-10T02:01:03.074Z,934.00
2022-09-10T02:02:03.027Z,933.98
2022-09-10T02:03:03.023Z,934.02
2022-09-10T02:04:03.039Z,933.97
2022-09-10T02:05:03.056Z,934.01
2022-09-10T02:06:03.072Z,933.98
2022-09-10T02:07:03.088Z,933.96
2022-09-10T02:08:03.104Z,933.96
2022-09-10T02:09:03.119Z,933.95
2022-09-10T02:10:03.134Z,933.93
2022-09-10T02:11:03.152Z,933.96
2022-09-10T02:12:03.167Z,933.97
2022-09-10T02:13:03.183Z,933.98
2022-09-10T02:14:03.196Z,933.96
2022-09-10T02:15:03.215Z,933.96
2022-09-10T02:16:03.313Z,934.01
2022-09-10T02:17:03.245Z,933.99
2022-09-10T02:18:03.259Z,933.99
2022-09-10T02:19:03.277Z,933.97
2022-09-10T02:20:03.295Z,933.95
2022-09-10T02:21:03.306Z,933.94
2022-09-10T02:22:03.325Z,933.92
2022-09-10T02:23:03.338Z,933.91
2022-09-10T02:24:03.356Z,933.92
2022-09-10T02:25:03.370Z,933.92
2022-09-10T02:26:03.385Z,933.93
2022-09-10T02:27:03.400Z,933.94
2022-09-10T02:28:03.422Z,933.96
2022-09-10T02:29:03.433Z,933.92
2022-09-10T02:30:03.448Z,933.96
2022-09-10T02:31:03.465Z,933.95
2022-09-10T02:32:03.497Z,933.96
2022-09-10T02:33:03.495Z,933.98
2022-09-10T02:34:03.511Z,933.96
2022-09-10T02:35:03.528Z,933.94
2022-09-10T02:36:03.543Z,933.93
2022-09-10T02:37:03.561Z,933.94
2022-09-10T02:38:03.574Z,933.93
2022-09-10T02:39:03.593Z,933.96
2022-09-10T02:40:03.655Z,934.04
2022-09-10T02:41:03.620Z,934.10
2022-09-10T02:42:03.636Z,934.09
2022-09-10T02:43:03.652Z,934.08
2022-09-10T02:44:03.679Z,934.03
2022-09-10T02:45:03.684Z,934.09
2022-09-10T02:46:03.789Z,934.08
2022-09-10T02:47:03.722Z,934.05
2022-09-10T02:48:03.750Z,934.04
2022-09-10T02:49:03.745Z,934.01
2022-09-10T02:50:03.760Z,934.03
2022-09-10T02:51:03.778Z,934.03
2022-09-10T02:52:03.791Z,934.03
2022-09-10T02:53:03.807Z,934.03
2022-09-10T02:54:03.825Z,934.03
2022-09-10T02:55:03.840Z,934.03
2022-09-10T02:56:03.856Z,934.04
2022-09-10T02:57:03.870Z,934.09
2022-09-10T02:58:03.888Z,934.11
2022-09-10T02:59:03.901Z,934.09
2022-09-10T03:00:03.917Z,934.10
2022-09-10T03:01:03.992Z,934.12
2022-09-10T03:02:04.005Z,934.09
2022-09-10T03:03:03.964Z,934.08
2022-09-10T03:04:04.001Z,934.05
2022-09-10T03:05:04.033Z,934.05
2022-09-10T03:06:04.011Z,934.08
2022-09-10T03:07:04.026Z,934.03
2022-09-10T03:08:04.042Z,934.10
2022-09-10T03:09:04.056Z,934.07
2022-09-10T03:10:04.077Z,934.11
2022-09-10T03:11:04.089Z,934.14
2022-09-10T03:12:04.105Z,934.14
2022-09-10T03:13:04.120Z,934.11
2022-09-10T03:14:04.136Z,934.14
2022-09-10T03:15:04.152Z,934.13
2022-09-10T03:16:04.358Z,934.14
2022-09-10T03:17:04.182Z,934.08
2022-09-10T03:18:04.203Z,934.08
2022-09-10T03:19:04.215Z,934.02
2022-09-10T03:20:04.247Z,934.03
2022-09-10T03:21:04.246Z,934.03
2022-09-10T03:22:04.260Z,934.07
2022-09-10T03:23:04.276Z,934.04
2022-09-10T03:24:05.315Z,934.02
2022-09-10T03:25:04.308Z,934.04
2022-09-10T03:26:04.328Z,934.05
2022-09-10T03:27:04.338Z,934.01
2022-09-10T03:28:04.354Z,934.00
2022-09-10T03:29:04.367Z,933.97
2022-09-10T03:30:04.385Z,933.93
2022-09-10T03:31:04.399Z,933.93
2022-09-10T03:32:04.415Z,933.92
2022-09-10T03:33:04.431Z,933.93
2022-09-10T03:34:04.445Z,933.94
2022-09-10T03:35:04.461Z,934.01
2022-09-10T03:36:04.497Z,933.96
2022-09-10T03:37:04.493Z,933.98
2022-09-10T03:38:04.509Z,933.98
2022-09-10T03:39:04.523Z,933.96
2022-09-10T03:40:04.591Z,933.96
2022-09-10T03:41:04.555Z,933.99
2022-09-10T03:42:04.570Z,933.99
2022-09-10T03:43:04.587Z,934.02
2022-09-10T03:44:04.602Z,933.97
2022-09-10T03:45:04.618Z,933.94
2022-09-10T03:46:04.675Z,933.96
2022-09-10T03:47:04.664Z,933.96
2022-09-10T03:48:04.665Z,933.93
2022-09-10T03:49:04.683Z,933.95
2022-09-10T03:50:04.693Z,933.93
2022-09-10T03:51:04.712Z,933.91
2022-09-10T03:52:04.745Z,933.87
2022-09-10T03:53:04.741Z,933.83
2022-09-10T03:54:04.756Z,933.80
2022-09-10T03:55:04.771Z,933.82
2022-09-10T03:56:04.788Z,933.82
2022-09-10T03:57:04.806Z,933.79
2022-09-10T03:58:04.818Z,933.84
2022-09-10T03:59:04.834Z,933.78
2022-09-10T04:00:04.850Z,933.75
2022-09-10T04:01:04.918Z,933.76
2022-09-10T04:02:04.958Z,933.76
2022-09-10T04:03:04.897Z,933.71
2022-09-10T04:04:04.910Z,933.70
2022-09-10T04:05:04.925Z,933.70
2022-09-10T04:06:04.942Z,933.60
2022-09-10T04:07:04.962Z,933.64
2022-09-10T04:08:04.990Z,933.64
2022-09-10T04:09:04.989Z,933.56
2022-09-10T04:10:05.012Z,933.55
2022-09-10T04:11:05.020Z,933.56
2022-09-10T04:12:05.037Z,933.55
2022-09-10T04:13:05.050Z,933.52
2022-09-10T04:14:05.064Z,933.47
2022-09-10T04:15:05.084Z,933.47
2022-09-10T04:16:05.165Z,933.49
2022-09-10T04:17:05.110Z,933.49
2022-09-10T04:18:05.128Z,933.53
2022-09-10T04:19:05.242Z,933.51
2022-09-10T04:20:05.159Z,933.45
2022-09-10T04:21:05.175Z,933.44
2022-09-10T04:22:05.188Z,933.46
2022-09-10T04:23:05.203Z,933.44
2022-09-10T04:24:05.239Z,933.45
2022-09-10T04:25:05.233Z,933.42
2022-09-10T04:26:05.250Z,933.42
2022-09-10T04:27:05.266Z,933.41
2022-09-10T04:28:05.280Z,933.38
2022-09-10T04:29:05.296Z,933.39
2022-09-10T04:30:05.311Z,933.44
2022-09-10T04:31:05.327Z,933.41
2022-09-10T04:32:05.344Z,933.42
2022-09-10T04:33:05.357Z,933.34
2022-09-10T04:34:05.374Z,933.33
2022-09-10T04:35:05.390Z,933.29
2022-09-10T04:36:05.406Z,933.28
2022-09-10T04:37:05.419Z,933.32
2022-09-10T04:38:05.434Z,933.35
2022-09-10T04:39:05.449Z,933.34
2022-09-10T04:40:05.525Z,933.34
2022-09-10T04:41:05.480Z,933.30
2022-09-10T04:42:05.496Z,933.27
2022-09-10T04:43:05.512Z,933.26
2022-09-10T04:44:05.528Z,933.28
2022-09-10T04:45:05.541Z,933.30
2022-09-10T04:46:05.602Z,933.32
2022-09-10T04:47:05.574Z,933.30
2022-09-10T04:48:07.180Z,933.27
2022-09-10T04:49:05.604Z,933.21
2022-09-10T04:50:05.619Z,933.28
2022-09-10T04:51:16.087Z,933.25
2022-09-10T04:52:05.652Z,933.26
2022-09-10T04:53:05.665Z,933.23
2022-09-10T04:54:05.682Z,933.22
2022-09-10T04:55:05.697Z,933.19
2022-09-10T04:56:05.729Z,933.16
2022-09-10T04:57:05.729Z,933.15
2022-09-10T04:58:05.741Z,933.15
2022-09-10T04:59:05.757Z,933.17
2022-09-10T05:00:05.773Z,933.17
2022-09-10T05:01:05.870Z,933.14
2022-09-10T05:02:05.837Z,933.20
2022-09-10T05:03:05.823Z,933.19
2022-09-10T05:04:05.832Z,933.17
2022-09-10T05:05:05.851Z,933.16
2022-09-10T05:06:05.863Z,933.16
2022-09-10T05:07:05.880Z,933.18
2022-09-10T05:08:05.895Z,933.20
2022-09-10T05:09:05.909Z,933.21
2022-09-10T05:10:05.924Z,933.22
2022-09-10T05:11:05.941Z,933.18
2022-09-10T05:12:05.976Z,933.16
2022-09-10T05:13:05.973Z,933.19
2022-09-10T05:14:05.985Z,933.16
2022-09-10T05:15:06.000Z,933.19
2022-09-10T05:16:06.109Z,933.23
2022-09-10T05:17:06.032Z,933.24
2022-09-10T05:18:06.048Z,933.24
2022-09-10T05:19:06.062Z,933.20
2022-09-10T05:20:06.077Z,933.23
2022-09-10T05:21:06.092Z,933.15
2022-09-10T05:22:06.110Z,933.16
2022-09-10T05:23:06.123Z,933.13
2022-09-10T05:24:06.139Z,933.15
2022-09-10T05:25:06.155Z,933.18
2022-09-10T05:26:06.170Z,933.21
2022-09-10T05:27:06.185Z,933.16
2022-09-10T05:28:06.217Z,933.13
2022-09-10T05:29:06.215Z,933.09
2022-09-10T05:30:06.231Z,933.05
2022-09-10T05:31:06.248Z,933.04
2022-09-10T05:32:06.261Z,933.05
2022-09-10T05:33:06.278Z,933.04
2022-09-10T05:34:06.291Z,933.01
2022-09-10T05:35:06.309Z,933.05
2022-09-10T05:36:06.323Z,933.02
2022-09-10T05:37:06.335Z,933.00
2022-09-10T05:38:06.353Z,932.99
2022-09-10T05:39:06.367Z,933.01
2022-09-10T05:40:06.449Z,933.01
2022-09-10T05:41:06.398Z,933.05
2022-09-10T05:42:06.413Z,933.06
2022-09-10T05:43:06.426Z,933.05
2022-09-10T05:44:06.461Z,933.02
2022-09-10T05:45:06.458Z,932.98
2022-09-10T05:46:06.522Z,932.94
2022-09-10T05:47:06.491Z,932.97
2022-09-10T05:48:06.502Z,932.95
2022-09-10T05:49:06.519Z,932.96
2022-09-10T05:50:06.534Z,932.96
2022-09-10T05:51:06.550Z,932.93
2022-09-10T05:52:06.569Z,932.92
2022-09-10T05:53:06.585Z,932.98
2022-09-10T05:54:06.595Z,932.99
2022-09-10T05:55:06.615Z,933.00
2022-09-10T05:56:06.625Z,932.98
2022-09-10T05:57:06.642Z,932.99
2022-09-10T05:58:06.656Z,933.05
2022-09-10T05:59:06.671Z,933.02
2022-09-10T06:00:06.703Z,933.02
2022-09-10T06:01:06.702Z,933.01
2022-09-10T06:02:06.855Z,932.95
2022-09-10T06:03:06.833Z,932.96
2022-09-10T06:04:06.747Z,932.97
2022-09-10T06:05:06.761Z,932.92
2022-09-10T06:06:06.776Z,932.89
2022-09-10T06:07:06.791Z,932.88
2022-09-10T06:08:08.960Z,932.87
2022-09-10T06:09:06.823Z,932.84
2022-09-10T06:10:06.837Z,932.84
2022-09-10T06:11:06.852Z,932.86
2022-09-10T06:12:06.869Z,932.83
2022-09-10T06:13:06.883Z,932.86
2022-09-10T06:14:06.900Z,932.82
2022-09-10T06:15:06.915Z,932.80
2022-09-10T06:16:06.963Z,932.85
2022-09-10T06:17:06.947Z,932.86
2022-09-10T06:18:06.959Z,932.88
2022-09-10T06:19:06.976Z,932.88
2022-09-10T06:20:06.990Z,932.91
2022-09-10T06:21:07.012Z,932.88
2022-09-10T06:22:07.021Z,932.88
2022-09-10T06:23:07.035Z,932.90
2022-09-10T06:24:07.050Z,932.93
2022-09-10T06:25:07.070Z,932.89
2022-09-10T06:26:07.081Z,932.90
2022-09-10T06:27:07.096Z,932.89
2022-09-10T06:28:07.111Z,932.89
2022-09-10T06:29:07.123Z,932.90
2022-09-10T06:30:07.140Z,932.87
2022-09-10T06:31:07.216Z,932.85
2022-09-10T06:32:07.190Z,932.77
2022-09-10T06:33:07.185Z,932.82
2022-09-10T06:34:07.202Z,932.80
2022-09-10T06:35:07.218Z,932.78
2022-09-10T06:36:07.229Z,932.78
2022-09-10T06:37:07.246Z,932.80
2022-09-10T06:38:07.261Z,932.79
2022-09-10T06:39:07.277Z,932.82
2022-09-10T06:40:07.338Z,932.80
2022-09-10T06:41:07.311Z,932.81
2022-09-10T06:42:07.321Z,932.85
2022-09-10T06:43:07.338Z,932.84
2022-09-10T06:44:07.353Z,932.79
2022-09-10T06:45:07.365Z,932.72
2022-09-10T06:46:19.157Z,932.70
2022-09-10T06:49:07.429Z,932.66
2022-09-10T06:50:07.442Z,932.63
2022-09-10T06:51:07.457Z,932.68
2022-09-10T06:52:07.475Z,932.63
2022-09-10T06:53:07.486Z,932.65
2022-09-10T06:54:07.501Z,932.63
2022-09-10T06:55:07.516Z,932.62
2022-09-10T06:56:07.532Z,932.61
2022-09-10T06:57:07.547Z,932.63
2022-09-10T06:58:07.561Z,932.59
2022-09-10T06:59:07.578Z,932.62
2022-09-10T07:00:07.593Z,932.60
2022-09-10T07:01:13.935Z,932.58
2022-09-10T07:02:07.700Z,932.61
2022-09-10T07:03:07.637Z,932.68
2022-09-10T07:04:07.670Z,932.66
2022-09-10T07:05:07.668Z,932.67
2022-09-10T07:06:07.680Z,932.65
2022-09-10T07:07:07.699Z,932.66
2022-09-10T07:08:07.712Z,932.67
2022-09-10T07:09:07.727Z,932.67
2022-09-10T07:10:07.742Z,932.67
2022-09-10T07:11:07.759Z,932.65
2022-09-10T07:12:07.770Z,932.71
2022-09-10T07:13:07.785Z,932.76
2022-09-10T07:14:07.802Z,932.71
2022-09-10T07:15:07.816Z,932.72
2022-09-10T07:16:07.922Z,932.71
2022-09-10T07:17:07.846Z,932.69
2022-09-10T07:18:07.860Z,932.66
2022-09-10T07:19:07.876Z,932.66
2022-09-10T07:20:07.909Z,932.65
2022-09-10T07:21:07.910Z,932.67
2022-09-10T07:22:07.919Z,932.70
2022-09-10T07:23:11.086Z,932.69
2022-09-10T07:24:07.952Z,932.71
2022-09-10T07:25:07.965Z,932.69
2022-09-10T07:26:07.990Z,932.70
2022-09-10T07:27:07.995Z,932.69
2022-09-10T07:28:08.011Z,932.72
2022-09-10T07:29:08.025Z,932.71
2022-09-10T07:30:08.041Z,932.70
2022-09-10T07:31:08.089Z,932.70
2022-09-10T07:32:10.582Z,932.75
2022-09-10T07:33:08.088Z,932.79
2022-09-10T07:34:08.100Z,932.77
2022-09-10T07:35:08.115Z,932.77
2022-09-10T07:36:08.148Z,932.80
2022-09-10T07:37:08.146Z,932.81
2022-09-10T07:38:08.161Z,932.79
2022-09-10T07:39:08.175Z,932.83
2022-09-10T07:40:08.252Z,932.84
2022-09-10T07:41:08.207Z,932.79
2022-09-10T07:42:08.220Z,932.79
2022-09-10T07:43:08.235Z,932.84
2022-09-10T07:44:08.249Z,932.81
2022-09-10T07:45:08.266Z,932.86
2022-09-10T07:46:08.342Z,932.85
2022-09-10T07:47:08.296Z,932.84
2022-09-10T07:48:08.310Z,932.85
2022-09-10T07:49:08.327Z,932.86
2022-09-10T07:50:08.337Z,932.90
2022-09-10T07:51:08.353Z,932.91
2022-09-10T07:52:08.388Z,932.95
2022-09-10T07:53:08.385Z,932.96
2022-09-10T07:54:08.400Z,932.98
2022-09-10T07:55:08.415Z,933.01
2022-09-10T07:56:08.429Z,933.02
2022-09-10T07:57:08.452Z,932.99
2022-09-10T07:58:08.457Z,933.01
2022-09-10T07:59:08.472Z,933.00
2022-09-10T08:00:08.489Z,933.01
2022-09-10T08:01:08.528Z,933.00
2022-09-10T08:02:08.595Z,932.99
2022-09-10T08:03:08.531Z,933.00
2022-09-10T08:04:08.547Z,933.03
2022-09-10T08:05:08.562Z,933.04
2022-09-10T08:06:08.576Z,933.05
2022-09-10T08:07:08.594Z,933.11
2022-09-10T08:08:08.625Z,933.07
2022-09-10T08:09:08.619Z,933.09
2022-09-10T08:10:08.635Z,933.10
2022-09-10T08:11:11.908Z,933.13
2022-09-10T08:12:08.665Z,933.09
2022-09-10T08:13:08.679Z,933.09
2022-09-10T08:14:08.696Z,933.07
2022-09-10T08:15:08.709Z,933.05
2022-09-10T08:16:08.792Z,933.08
2022-09-10T08:17:08.738Z,933.09
2022-09-10T08:18:08.755Z,933.10
2022-09-10T08:19:08.769Z,933.12
2022-09-10T08:20:08.792Z,933.11
2022-09-10T08:21:08.799Z,933.14
2022-09-10T08:22:13.265Z,933.15
2022-09-10T08:23:08.828Z,933.16
2022-09-10T08:24:08.861Z,933.13
2022-09-10T08:25:08.856Z,933.08
2022-09-10T08:26:08.875Z,933.11
2022-09-10T08:27:08.887Z,933.11
2022-09-10T08:28:08.903Z,933.12
2022-09-10T08:29:08.917Z,933.14
2022-09-10T08:30:08.932Z,933.12
2022-09-10T08:31:09.011Z,933.15
2022-09-10T08:32:08.964Z,933.14
2022-09-10T08:33:08.977Z,933.15
2022-09-10T08:34:08.991Z,933.17
2022-09-10T08:35:09.005Z,933.17
2022-09-10T08:36:09.020Z,933.16
2022-09-10T08:37:09.036Z,933.11
2022-09-10T08:38:09.051Z,933.16
2022-09-10T08:39:09.065Z,933.14
2022-09-10T08:40:09.117Z,933.13
2022-09-10T08:41:09.094Z,933.15
2022-09-10T08:42:09.109Z,933.16
2022-09-10T08:43:09.123Z,933.17
2022-09-10T08:44:09.137Z,933.16
2022-09-10T08:45:09.152Z,933.20
2022-09-10T08:46:09.207Z,933.27
2022-09-10T08:47:09.182Z,933.30
2022-09-10T08:48:09.197Z,933.32
2022-09-10T08:49:09.212Z,933.32
2022-09-10T08:50:09.229Z,933.27
2022-09-10T08:51:09.242Z,933.30
2022-09-10T08:52:09.258Z,933.35
2022-09-10T08:53:09.271Z,933.36
2022-09-10T08:54:09.286Z,933.31
2022-09-10T08:55:09.301Z,933.35
2022-09-10T08:56:09.333Z,933.40
2022-09-10T08:57:09.328Z,933.37
2022-09-10T08:58:09.359Z,933.40
2022-09-10T08:59:09.359Z,933.45
2022-09-10T09:00:09.374Z,933.42
2022-09-10T09:01:09.429Z,933.48
2022-09-10T09:02:09.428Z,933.49
2022-09-10T09:03:09.483Z,933.50
2022-09-10T09:04:09.432Z,933.51
2022-09-10T09:05:09.448Z,933.53
2022-09-10T09:06:09.462Z,933.56
2022-09-10T09:07:09.477Z,933.60
2022-09-10T09:08:09.491Z,933.60
2022-09-10T09:09:13.475Z,933.66
2022-09-10T09:10:09.521Z,933.65
2022-09-10T09:11:09.535Z,933.59
2022-09-10T09:12:09.569Z,933.62
2022-09-10T09:13:09.565Z,933.59
2022-09-10T09:14:09.580Z,933.62
2022-09-10T09:15:09.593Z,933.64
2022-09-10T09:16:09.644Z,933.64
2022-09-10T09:17:09.624Z,933.68
2022-09-10T09:18:09.639Z,933.65
2022-09-10T09:19:09.653Z,933.65
2022-09-10T09:20:09.668Z,933.68
2022-09-10T09:21:09.680Z,933.69
2022-09-10T09:22:09.695Z,933.71
2022-09-10T09:23:09.713Z,933.76
2022-09-10T09:24:13.712Z,933.77
2022-09-10T09:25:09.741Z,933.81
2022-09-10T09:26:09.759Z,933.77
2022-09-10T09:27:09.770Z,933.82
2022-09-10T09:28:09.803Z,933.83
2022-09-10T09:29:09.800Z,933.82
2022-09-10T09:30:09.819Z,933.87
2022-09-10T09:31:09.887Z,933.90
2022-09-10T09:32:09.845Z,933.92
2022-09-10T09:33:09.858Z,933.90
2022-09-10T09:34:09.872Z,933.91
2022-09-10T09:35:09.888Z,933.97
2022-09-10T09:36:09.902Z,934.00
2022-09-10T09:37:09.916Z,934.04
2022-09-10T09:38:09.929Z,934.02
2022-09-10T09:39:09.945Z,934.06
2022-09-10T09:40:10.002Z,934.07
2022-09-10T09:41:09.973Z,934.10
2022-09-10T09:42:09.989Z,934.13
2022-09-10T09:43:10.003Z,934.18
2022-09-10T09:44:10.053Z,934.17
2022-09-10T09:45:10.033Z,934.19
2022-09-10T09:46:10.086Z,934.18
2022-09-10T09:47:10.062Z,934.18
2022-09-10T09:48:10.078Z,934.17
2022-09-10T09:49:10.090Z,934.19
2022-09-10T09:50:10.113Z,934.20
2022-09-10T09:51:10.120Z,934.20
2022-09-10T09:52:10.138Z,934.23
2022-09-10T09:53:10.148Z,934.27
2022-09-10T09:54:46.718Z,934.25
2022-09-10T09:55:14.839Z,934.24
2022-09-10T09:56:10.193Z,934.28
2022-09-10T09:57:10.209Z,934.29
2022-09-10T09:58:10.222Z,934.32
2022-09-10T09:59:14.788Z,934.32
2022-09-10T10:00:10.396Z,934.31
2022-09-10T10:01:10.288Z,934.28
2022-09-10T10:02:10.358Z,934.32
2022-09-10T10:03:10.295Z,934.32
2022-09-10T10:04:10.310Z,934.32
2022-09-10T10:05:10.323Z,934.35
2022-09-10T10:06:10.342Z,934.39
2022-09-10T10:07:10.351Z,934.37
2022-09-10T10:08:10.366Z,934.35
2022-09-10T10:09:10.381Z,934.38
2022-09-10T10:10:10.445Z,934.35
2022-09-10T10:11:10.411Z,934.38
2022-09-10T10:12:10.425Z,934.38
2022-09-10T10:13:10.439Z,934.37
2022-09-10T10:14:10.455Z,934.40
2022-09-10T10:15:10.469Z,934.41
2022-09-10T10:16:10.546Z,934.44
2022-09-10T10:17:10.496Z,934.45
2022-09-10T10:18:10.511Z,934.48
2022-09-10T10:19:10.526Z,934.45
2022-09-10T10:20:10.541Z,934.50
2022-09-10T10:21:10.556Z,934.52
2022-09-10T10:22:10.570Z,934.47
2022-09-10T10:23:10.583Z,934.56
2022-09-10T10:24:10.600Z,934.53
2022-09-10T10:25:10.614Z,934.57
2022-09-10T10:26:10.626Z,934.58
2022-09-10T10:27:10.643Z,934.58
2022-09-10T10:28:10.658Z,934.60
2022-09-10T10:29:10.671Z,934.62
2022-09-10T10:30:10.687Z,934.64
2022-09-10T10:31:10.737Z,934.63
2022-09-10T10:32:10.736Z,934.68
2022-09-10T10:33:10.728Z,934.67
2022-09-10T10:34:10.745Z,934.70
2022-09-10T10:35:10.758Z,934.72
2022-09-10T10:36:10.772Z,934.71
2022-09-10T10:37:10.788Z,934.73
2022-09-10T10:38:10.800Z,934.70
2022-09-10T10:39:10.817Z,934.72
2022-09-10T10:40:10.946Z,934.73
2022-09-10T10:41:10.846Z,934.73
2022-09-10T10:42:10.860Z,934.75
2022-09-10T10:43:10.874Z,934.76
2022-09-10T10:44:10.887Z,934.79
2022-09-10T10:45:10.902Z,934.83
2022-09-10T10:46:11.979Z,934.81
2022-09-10T10:47:10.930Z,934.77
2022-09-10T10:48:10.967Z,934.78
2022-09-10T10:49:10.961Z,934.83
2022-09-10T10:50:10.976Z,934.79
2022-09-10T10:51:10.990Z,934.82
2022-09-10T10:52:11.003Z,934.81
2022-09-10T10:53:14.978Z,934.84
2022-09-10T10:54:11.035Z,934.83
2022-09-10T10:55:11.050Z,934.88
2022-09-10T10:56:11.065Z,934.88
2022-09-10T10:57:11.077Z,934.86
2022-09-10T10:58:11.092Z,934.86
2022-09-10T10:59:11.104Z,934.84
2022-09-10T11:00:11.120Z,934.83
2022-09-10T11:01:11.219Z,934.85
2022-09-10T11:02:11.349Z,934.87
2022-09-10T11:03:11.162Z,934.83
2022-09-10T11:04:11.196Z,934.84
2022-09-10T11:05:11.193Z,934.84
2022-09-10T11:06:11.206Z,934.89
2022-09-10T11:07:11.222Z,934.88
2022-09-10T11:08:11.238Z,934.87
2022-09-10T11:09:11.251Z,934.86
2022-09-10T11:10:11.266Z,934.90
2022-09-10T11:11:11.279Z,934.86
2022-09-10T11:12:11.294Z,934.90
2022-09-10T11:13:11.308Z,934.91
2022-09-10T11:14:11.327Z,934.94
2022-09-10T11:15:11.338Z,934.94
2022-09-10T11:16:11.387Z,934.91
2022-09-10T11:17:12.118Z,934.90
2022-09-10T11:18:11.382Z,934.90
2022-09-10T11:19:11.401Z,934.91
2022-09-10T11:20:28.078Z,934.87
2022-09-10T11:21:11.424Z,934.89
2022-09-10T11:22:11.440Z,934.87
2022-09-10T11:23:11.454Z,934.90
2022-09-10T11:24:16.340Z,934.85
2022-09-10T11:25:11.483Z,934.88
2022-09-10T11:26:11.499Z,934.89
2022-09-10T11:27:11.520Z,934.91
2022-09-10T11:28:11.528Z,934.91
2022-09-10T11:29:11.541Z,934.92
2022-09-10T11:30:11.556Z,934.93
2022-09-10T11:31:11.687Z,934.89
2022-09-10T11:32:11.583Z,934.90
2022-09-10T11:33:11.599Z,934.91
2022-09-10T11:34:11.612Z,934.95
2022-09-10T11:35:11.627Z,934.96
2022-09-10T11:36:11.664Z,934.92
2022-09-10T11:37:11.657Z,934.92
2022-09-10T11:38:11.672Z,934.89
2022-09-10T11:39:11.684Z,934.91
2022-09-10T11:40:11.732Z,934.92
2022-09-10T11:41:11.717Z,934.95
2022-09-10T11:42:11.731Z,934.92
2022-09-10T11:43:11.744Z,934.91
2022-09-10T11:44:11.758Z,934.93
2022-09-10T11:45:11.774Z,934.90
2022-09-10T11:46:11.847Z,934.92
2022-09-10T11:47:11.801Z,934.90
2022-09-10T11:48:11.816Z,934.94
2022-09-10T11:49:11.830Z,934.91
2022-09-10T11:50:11.845Z,934.86
2022-09-10T11:51:11.859Z,934.89
2022-09-10T11:52:11.894Z,934.89
2022-09-10T11:53:11.888Z,934.88
2022-09-10T11:54:11.903Z,934.93
2022-09-10T11:55:11.918Z,934.93
2022-09-10T11:56:11.933Z,934.90
2022-09-10T11:57:11.946Z,934.92
2022-09-10T11:58:11.961Z,934.89
2022-09-10T11:59:11.977Z,934.86
2022-09-10T12:00:12.000Z,934.88
2022-09-10T12:01:12.006Z,934.87
2022-09-10T12:02:12.068Z,934.88
2022-09-10T12:03:12.083Z,934.87
2022-09-10T12:04:12.051Z,934.88
2022-09-10T12:05:12.063Z,934.88
2022-09-10T12:06:12.077Z,934.86
2022-09-10T12:07:12.094Z,934.90
2022-09-10T12:08:12.127Z,934.89
2022-09-10T12:09:12.123Z,934.87
2022-09-10T12:10:14.398Z,934.88
2022-09-10T12:11:12.187Z,934.90
2022-09-10T12:12:12.165Z,934.94
2022-09-10T12:13:12.178Z,934.93
2022-09-10T12:14:12.196Z,934.95
2022-09-10T12:15:12.209Z,934.96
2022-09-10T12:16:12.383Z,935.02
2022-09-10T12:17:12.238Z,935.04
2022-09-10T12:18:12.261Z,935.05
2022-09-10T12:19:12.267Z,935.13
2022-09-10T12:20:12.283Z,935.18
2022-09-10T12:21:12.297Z,935.26
2022-09-10T12:22:12.311Z,935.31
2022-09-10T12:23:12.327Z,935.45
2022-09-10T12:24:12.362Z,935.57
2022-09-10T12:25:12.355Z,935.59
2022-09-10T12:26:12.368Z,935.70
2022-09-10T12:27:12.384Z,935.79
2022-09-10T12:28:12.399Z,935.82
2022-09-10T12:29:12.412Z,935.88
2022-09-10T12:30:12.428Z,935.84